sensor_id;sensor_type;location;lat;lon;timestamp;P1;durP1;ratioP1;P2;durP2;ratioP2
61915;SDS011;47868;51.326;6.550;2023-02-23T00:03:42;46.45;;;38.67;;
61915;SDS011;47868;51.326;6.550;2023-02-23T00:06:09;48.50;;;40.67;;
61915;SDS011;47868;51.326;6.550;2023-02-23T00:08:35;44.72;;;38.85;;
61915;SDS011;47868;51.326;6.550;2023-02-23T00:11:03;48.13;;;39.55;;
61915;SDS011;47868;51.326;6.550;2023-02-23T00:13:30;52.00;;;41.05;;
61915;SDS011;47868;51.326;6.550;2023-02-23T00:15:56;50.72;;;41.65;;
61915;SDS011;47868;51.326;6.550;2023-02-23T00:18:22;49.58;;;40.00;;
61915;SDS011;47868;51.326;6.550;2023-02-23T00:20:54;50.30;;;40.10;;
61915;SDS011;47868;51.326;6.550;2023-02-23T00:23:21;51.00;;;40.17;;
61915;SDS011;47868;51.326;6.550;2023-02-23T00:25:48;54.08;;;41.65;;
61915;SDS011;47868;51.326;6.550;2023-02-23T00:28:13;51.08;;;40.70;;
61915;SDS011;47868;51.326;6.550;2023-02-23T00:30:39;48.92;;;40.03;;
61915;SDS011;47868;51.326;6.550;2023-02-23T00:33:04;57.70;;;42.42;;
61915;SDS011;47868;51.326;6.550;2023-02-23T00:35:31;52.72;;;41.00;;
61915;SDS011;47868;51.326;6.550;2023-02-23T00:37:57;53.42;;;42.75;;
61915;SDS011;47868;51.326;6.550;2023-02-23T00:40:23;52.95;;;41.60;;
61915;SDS011;47868;51.326;6.550;2023-02-23T00:42:49;51.97;;;42.25;;
61915;SDS011;47868;51.326;6.550;2023-02-23T00:45:16;52.78;;;41.53;;
61915;SDS011;47868;51.326;6.550;2023-02-23T00:47:43;55.75;;;42.72;;
61915;SDS011;47868;51.326;6.550;2023-02-23T00:50:10;53.85;;;42.20;;
61915;SDS011;47868;51.326;6.550;2023-02-23T00:52:39;48.75;;;40.00;;
61915;SDS011;47868;51.326;6.550;2023-02-23T00:55:09;53.33;;;42.00;;
61915;SDS011;47868;51.326;6.550;2023-02-23T00:57:37;51.08;;;42.40;;
61915;SDS011;47868;51.326;6.550;2023-02-23T01:00:07;53.38;;;40.75;;
61915;SDS011;47868;51.326;6.550;2023-02-23T01:02:40;50.67;;;40.35;;
61915;SDS011;47868;51.326;6.550;2023-02-23T01:05:06;47.20;;;39.15;;
61915;SDS011;47868;51.326;6.550;2023-02-23T01:07:32;45.78;;;38.97;;
61915;SDS011;47868;51.326;6.550;2023-02-23T01:09:58;51.10;;;40.45;;
61915;SDS011;47868;51.326;6.550;2023-02-23T01:12:24;48.50;;;40.78;;
61915;SDS011;47868;51.326;6.550;2023-02-23T01:14:49;47.53;;;38.58;;
61915;SDS011;47868;51.326;6.550;2023-02-23T01:17:15;48.83;;;40.83;;
61915;SDS011;47868;51.326;6.550;2023-02-23T01:19:41;44.80;;;39.88;;
61915;SDS011;47868;51.326;6.550;2023-02-23T01:22:07;51.38;;;41.13;;
61915;SDS011;47868;51.326;6.550;2023-02-23T01:24:33;52.60;;;41.88;;
61915;SDS011;47868;51.326;6.550;2023-02-23T01:26:59;51.15;;;41.92;;
61915;SDS011;47868;51.326;6.550;2023-02-23T01:29:24;51.90;;;41.28;;
61915;SDS011;47868;51.326;6.550;2023-02-23T01:31:50;46.30;;;40.55;;
61915;SDS011;47868;51.326;6.550;2023-02-23T01:34:16;50.88;;;42.22;;
61915;SDS011;47868;51.326;6.550;2023-02-23T01:36:42;49.25;;;41.28;;
61915;SDS011;47868;51.326;6.550;2023-02-23T01:39:13;51.60;;;41.85;;
61915;SDS011;47868;51.326;6.550;2023-02-23T01:41:41;52.15;;;41.75;;
61915;SDS011;47868;51.326;6.550;2023-02-23T01:46:56;53.25;;;42.92;;
61915;SDS011;47868;51.326;6.550;2023-02-23T01:49:23;48.80;;;40.00;;
61915;SDS011;47868;51.326;6.550;2023-02-23T01:51:55;53.35;;;42.88;;
61915;SDS011;47868;51.326;6.550;2023-02-23T01:54:27;52.58;;;43.22;;
61915;SDS011;47868;51.326;6.550;2023-02-23T01:56:58;57.60;;;43.60;;
61915;SDS011;47868;51.326;6.550;2023-02-23T01:59:28;55.08;;;43.40;;
61915;SDS011;47868;51.326;6.550;2023-02-23T02:02:05;61.67;;;45.63;;
61915;SDS011;47868;51.326;6.550;2023-02-23T02:04:33;56.33;;;43.33;;
61915;SDS011;47868;51.326;6.550;2023-02-23T02:07:08;59.08;;;45.55;;
61915;SDS011;47868;51.326;6.550;2023-02-23T02:09:35;53.88;;;43.35;;
61915;SDS011;47868;51.326;6.550;2023-02-23T02:12:03;60.75;;;45.42;;
61915;SDS011;47868;51.326;6.550;2023-02-23T02:14:32;54.60;;;44.78;;
61915;SDS011;47868;51.326;6.550;2023-02-23T02:19:36;55.72;;;44.28;;
61915;SDS011;47868;51.326;6.550;2023-02-23T02:40:53;62.67;;;44.08;;
61915;SDS011;47868;51.326;6.550;2023-02-23T02:43:23;60.38;;;44.92;;
61915;SDS011;47868;51.326;6.550;2023-02-23T02:46:29;59.60;;;44.42;;
61915;SDS011;47868;51.326;6.550;2023-02-23T02:51:25;69.22;;;46.20;;
61915;SDS011;47868;51.326;6.550;2023-02-23T02:54:06;60.38;;;44.33;;
61915;SDS011;47868;51.326;6.550;2023-02-23T02:56:36;62.75;;;44.78;;
61915;SDS011;47868;51.326;6.550;2023-02-23T02:59:37;59.35;;;45.40;;
61915;SDS011;47868;51.326;6.550;2023-02-23T03:02:16;60.08;;;45.70;;
61915;SDS011;47868;51.326;6.550;2023-02-23T03:05:01;62.47;;;45.78;;
61915;SDS011;47868;51.326;6.550;2023-02-23T03:10:35;62.28;;;46.20;;
61915;SDS011;47868;51.326;6.550;2023-02-23T03:16:32;67.00;;;46.35;;
61915;SDS011;47868;51.326;6.550;2023-02-23T03:19:22;68.32;;;47.63;;
61915;SDS011;47868;51.326;6.550;2023-02-23T03:28:09;61.88;;;44.97;;
61915;SDS011;47868;51.326;6.550;2023-02-23T03:31:15;67.88;;;46.50;;
61915;SDS011;47868;51.326;6.550;2023-02-23T03:40:06;71.25;;;48.42;;
61915;SDS011;47868;51.326;6.550;2023-02-23T03:42:51;67.60;;;49.22;;
61915;SDS011;47868;51.326;6.550;2023-02-23T03:45:38;65.90;;;47.17;;
61915;SDS011;47868;51.326;6.550;2023-02-23T03:48:24;67.43;;;47.03;;
61915;SDS011;47868;51.326;6.550;2023-02-23T03:51:10;67.32;;;47.25;;
61915;SDS011;47868;51.326;6.550;2023-02-23T03:54:11;69.90;;;47.78;;
61915;SDS011;47868;51.326;6.550;2023-02-23T03:56:58;64.80;;;48.15;;
61915;SDS011;47868;51.326;6.550;2023-02-23T03:59:45;64.50;;;47.78;;
61915;SDS011;47868;51.326;6.550;2023-02-23T04:02:31;66.65;;;45.08;;
61915;SDS011;47868;51.326;6.550;2023-02-23T04:05:17;69.40;;;47.28;;
61915;SDS011;47868;51.326;6.550;2023-02-23T04:08:05;68.75;;;47.47;;
61915;SDS011;47868;51.326;6.550;2023-02-23T04:10:53;64.88;;;46.00;;
61915;SDS011;47868;51.326;6.550;2023-02-23T04:13:40;68.13;;;46.15;;
61915;SDS011;47868;51.326;6.550;2023-02-23T04:16:08;69.90;;;47.38;;
61915;SDS011;47868;51.326;6.550;2023-02-23T04:18:35;73.28;;;49.72;;
61915;SDS011;47868;51.326;6.550;2023-02-23T04:21:02;68.05;;;49.20;;
61915;SDS011;47868;51.326;6.550;2023-02-23T04:23:29;71.47;;;48.28;;
61915;SDS011;47868;51.326;6.550;2023-02-23T04:25:55;70.80;;;49.30;;
61915;SDS011;47868;51.326;6.550;2023-02-23T04:28:22;71.35;;;47.70;;
61915;SDS011;47868;51.326;6.550;2023-02-23T04:30:48;67.88;;;48.28;;
61915;SDS011;47868;51.326;6.550;2023-02-23T04:33:16;63.88;;;46.95;;
61915;SDS011;47868;51.326;6.550;2023-02-23T04:35:42;73.10;;;47.85;;
61915;SDS011;47868;51.326;6.550;2023-02-23T04:38:08;68.53;;;48.38;;
61915;SDS011;47868;51.326;6.550;2023-02-23T04:40:34;68.30;;;49.65;;
61915;SDS011;47868;51.326;6.550;2023-02-23T04:43:00;66.68;;;47.72;;
61915;SDS011;47868;51.326;6.550;2023-02-23T04:45:26;68.53;;;49.28;;
61915;SDS011;47868;51.326;6.550;2023-02-23T04:47:52;70.97;;;49.15;;
61915;SDS011;47868;51.326;6.550;2023-02-23T04:50:18;69.47;;;50.50;;
61915;SDS011;47868;51.326;6.550;2023-02-23T04:52:44;64.22;;;47.53;;
61915;SDS011;47868;51.326;6.550;2023-02-23T04:55:18;66.57;;;47.55;;
61915;SDS011;47868;51.326;6.550;2023-02-23T04:57:45;65.32;;;49.00;;
61915;SDS011;47868;51.326;6.550;2023-02-23T05:00:11;66.65;;;49.38;;
61915;SDS011;47868;51.326;6.550;2023-02-23T05:02:37;70.90;;;49.60;;
61915;SDS011;47868;51.326;6.550;2023-02-23T05:05:04;67.30;;;48.10;;
61915;SDS011;47868;51.326;6.550;2023-02-23T05:07:31;69.68;;;48.63;;
61915;SDS011;47868;51.326;6.550;2023-02-23T05:09:57;69.53;;;49.47;;
61915;SDS011;47868;51.326;6.550;2023-02-23T05:12:23;67.38;;;48.50;;
61915;SDS011;47868;51.326;6.550;2023-02-23T05:14:49;63.83;;;48.33;;
61915;SDS011;47868;51.326;6.550;2023-02-23T05:17:15;65.75;;;48.47;;
61915;SDS011;47868;51.326;6.550;2023-02-23T05:19:41;65.13;;;46.65;;
61915;SDS011;47868;51.326;6.550;2023-02-23T05:22:07;61.05;;;45.78;;
61915;SDS011;47868;51.326;6.550;2023-02-23T05:24:37;68.13;;;48.75;;
61915;SDS011;47868;51.326;6.550;2023-02-23T05:27:03;66.97;;;50.22;;
61915;SDS011;47868;51.326;6.550;2023-02-23T05:29:29;72.03;;;51.83;;
61915;SDS011;47868;51.326;6.550;2023-02-23T05:31:55;69.57;;;54.90;;
61915;SDS011;47868;51.326;6.550;2023-02-23T05:34:21;77.68;;;57.30;;
61915;SDS011;47868;51.326;6.550;2023-02-23T05:36:47;71.35;;;56.80;;
61915;SDS011;47868;51.326;6.550;2023-02-23T05:39:13;73.03;;;55.72;;
61915;SDS011;47868;51.326;6.550;2023-02-23T05:41:39;75.82;;;56.00;;
61915;SDS011;47868;51.326;6.550;2023-02-23T05:44:05;72.65;;;53.45;;
61915;SDS011;47868;51.326;6.550;2023-02-23T05:46:31;74.70;;;55.45;;
61915;SDS011;47868;51.326;6.550;2023-02-23T05:48:58;79.82;;;59.15;;
61915;SDS011;47868;51.326;6.550;2023-02-23T05:51:25;71.65;;;54.03;;
61915;SDS011;47868;51.326;6.550;2023-02-23T05:53:51;74.13;;;55.35;;
61915;SDS011;47868;51.326;6.550;2023-02-23T05:56:17;74.63;;;56.55;;
61915;SDS011;47868;51.326;6.550;2023-02-23T05:58:47;78.72;;;56.53;;
61915;SDS011;47868;51.326;6.550;2023-02-23T06:01:13;76.40;;;54.47;;
61915;SDS011;47868;51.326;6.550;2023-02-23T06:03:39;75.10;;;54.63;;
61915;SDS011;47868;51.326;6.550;2023-02-23T06:06:06;77.63;;;54.88;;
61915;SDS011;47868;51.326;6.550;2023-02-23T06:08:32;78.78;;;56.00;;
61915;SDS011;47868;51.326;6.550;2023-02-23T06:10:58;74.32;;;55.33;;
61915;SDS011;47868;51.326;6.550;2023-02-23T06:13:24;70.05;;;54.85;;
61915;SDS011;47868;51.326;6.550;2023-02-23T06:15:50;68.68;;;52.95;;
61915;SDS011;47868;51.326;6.550;2023-02-23T06:18:17;71.43;;;52.28;;
61915;SDS011;47868;51.326;6.550;2023-02-23T06:20:43;70.47;;;52.53;;
61915;SDS011;47868;51.326;6.550;2023-02-23T06:23:10;65.50;;;49.75;;
61915;SDS011;47868;51.326;6.550;2023-02-23T06:25:36;62.47;;;47.33;;
61915;SDS011;47868;51.326;6.550;2023-02-23T06:28:02;62.67;;;47.28;;
61915;SDS011;47868;51.326;6.550;2023-02-23T06:30:29;61.78;;;46.17;;
61915;SDS011;47868;51.326;6.550;2023-02-23T06:32:54;69.80;;;47.88;;
61915;SDS011;47868;51.326;6.550;2023-02-23T06:35:20;65.18;;;45.97;;
61915;SDS011;47868;51.326;6.550;2023-02-23T06:37:46;69.78;;;46.40;;
61915;SDS011;47868;51.326;6.550;2023-02-23T06:40:12;69.70;;;46.28;;
61915;SDS011;47868;51.326;6.550;2023-02-23T06:42:39;70.03;;;45.80;;
61915;SDS011;47868;51.326;6.550;2023-02-23T06:45:05;72.80;;;47.15;;
61915;SDS011;47868;51.326;6.550;2023-02-23T06:47:31;72.47;;;47.05;;
61915;SDS011;47868;51.326;6.550;2023-02-23T06:49:57;73.38;;;47.47;;
61915;SDS011;47868;51.326;6.550;2023-02-23T06:52:28;76.90;;;50.42;;
61915;SDS011;47868;51.326;6.550;2023-02-23T06:54:54;73.78;;;46.90;;
61915;SDS011;47868;51.326;6.550;2023-02-23T06:57:20;85.72;;;50.40;;
61915;SDS011;47868;51.326;6.550;2023-02-23T06:59:46;80.93;;;49.72;;
61915;SDS011;47868;51.326;6.550;2023-02-23T07:02:12;84.97;;;52.03;;
61915;SDS011;47868;51.326;6.550;2023-02-23T07:04:38;90.22;;;53.90;;
61915;SDS011;47868;51.326;6.550;2023-02-23T07:07:05;84.30;;;52.33;;
61915;SDS011;47868;51.326;6.550;2023-02-23T07:09:31;84.75;;;53.08;;
61915;SDS011;47868;51.326;6.550;2023-02-23T07:11:57;90.68;;;53.90;;
61915;SDS011;47868;51.326;6.550;2023-02-23T07:14:24;84.10;;;52.60;;
61915;SDS011;47868;51.326;6.550;2023-02-23T07:16:50;85.82;;;52.80;;
61915;SDS011;47868;51.326;6.550;2023-02-23T07:19:16;94.00;;;54.65;;
61915;SDS011;47868;51.326;6.550;2023-02-23T07:21:42;87.35;;;52.08;;
61915;SDS011;47868;51.326;6.550;2023-02-23T07:24:08;88.13;;;53.53;;
61915;SDS011;47868;51.326;6.550;2023-02-23T07:26:34;89.55;;;53.05;;
61915;SDS011;47868;51.326;6.550;2023-02-23T07:29:00;89.43;;;52.20;;
61915;SDS011;47868;51.326;6.550;2023-02-23T07:31:26;86.13;;;52.13;;
61915;SDS011;47868;51.326;6.550;2023-02-23T07:33:53;89.22;;;51.10;;
61915;SDS011;47868;51.326;6.550;2023-02-23T07:36:22;92.40;;;53.75;;
61915;SDS011;47868;51.326;6.550;2023-02-23T07:38:49;88.90;;;52.72;;
61915;SDS011;47868;51.326;6.550;2023-02-23T07:41:15;87.75;;;51.53;;
61915;SDS011;47868;51.326;6.550;2023-02-23T07:43:41;90.32;;;52.83;;
61915;SDS011;47868;51.326;6.550;2023-02-23T07:46:07;87.72;;;52.42;;
61915;SDS011;47868;51.326;6.550;2023-02-23T07:48:33;101.43;;;55.63;;
61915;SDS011;47868;51.326;6.550;2023-02-23T07:50:59;87.43;;;50.33;;
61915;SDS011;47868;51.326;6.550;2023-02-23T07:53:25;91.72;;;53.55;;
61915;SDS011;47868;51.326;6.550;2023-02-23T07:55:58;82.57;;;50.10;;
61915;SDS011;47868;51.326;6.550;2023-02-23T07:58:25;82.97;;;50.72;;
61915;SDS011;47868;51.326;6.550;2023-02-23T08:00:51;81.03;;;49.85;;
61915;SDS011;47868;51.326;6.550;2023-02-23T08:03:17;82.07;;;49.53;;
61915;SDS011;47868;51.326;6.550;2023-02-23T08:05:43;80.63;;;49.40;;
61915;SDS011;47868;51.326;6.550;2023-02-23T08:08:10;86.18;;;50.88;;
61915;SDS011;47868;51.326;6.550;2023-02-23T08:10:36;78.28;;;49.30;;
61915;SDS011;47868;51.326;6.550;2023-02-23T08:13:03;81.00;;;49.17;;
61915;SDS011;47868;51.326;6.550;2023-02-23T08:15:29;83.43;;;49.90;;
61915;SDS011;47868;51.326;6.550;2023-02-23T08:17:55;80.43;;;49.45;;
61915;SDS011;47868;51.326;6.550;2023-02-23T08:20:21;88.07;;;48.75;;
61915;SDS011;47868;51.326;6.550;2023-02-23T08:22:52;82.03;;;48.17;;
61915;SDS011;47868;51.326;6.550;2023-02-23T08:25:18;79.68;;;48.45;;
61915;SDS011;47868;51.326;6.550;2023-02-23T08:27:44;79.03;;;48.63;;
61915;SDS011;47868;51.326;6.550;2023-02-23T08:30:10;80.65;;;49.13;;
61915;SDS011;47868;51.326;6.550;2023-02-23T08:32:38;81.85;;;48.22;;
61915;SDS011;47868;51.326;6.550;2023-02-23T08:35:04;82.88;;;49.05;;
61915;SDS011;47868;51.326;6.550;2023-02-23T08:37:31;80.05;;;48.53;;
61915;SDS011;47868;51.326;6.550;2023-02-23T08:39:57;84.18;;;48.63;;
61915;SDS011;47868;51.326;6.550;2023-02-23T08:42:24;83.25;;;48.33;;
61915;SDS011;47868;51.326;6.550;2023-02-23T08:44:50;80.97;;;50.92;;
61915;SDS011;47868;51.326;6.550;2023-02-23T08:47:16;83.68;;;48.80;;
61915;SDS011;47868;51.326;6.550;2023-02-23T08:49:50;83.50;;;51.15;;
61915;SDS011;47868;51.326;6.550;2023-02-23T08:52:18;79.85;;;49.40;;
61915;SDS011;47868;51.326;6.550;2023-02-23T08:54:44;75.18;;;47.45;;
61915;SDS011;47868;51.326;6.550;2023-02-23T08:57:11;80.47;;;48.00;;
61915;SDS011;47868;51.326;6.550;2023-02-23T08:59:37;76.57;;;46.53;;
61915;SDS011;47868;51.326;6.550;2023-02-23T09:02:03;77.95;;;45.95;;
61915;SDS011;47868;51.326;6.550;2023-02-23T09:04:31;73.28;;;46.35;;
61915;SDS011;47868;51.326;6.550;2023-02-23T09:06:59;84.35;;;46.67;;
61915;SDS011;47868;51.326;6.550;2023-02-23T09:09:25;73.95;;;46.70;;
61915;SDS011;47868;51.326;6.550;2023-02-23T09:11:51;76.28;;;45.72;;
61915;SDS011;47868;51.326;6.550;2023-02-23T09:14:17;76.03;;;46.20;;
61915;SDS011;47868;51.326;6.550;2023-02-23T09:16:44;74.75;;;45.47;;
61915;SDS011;47868;51.326;6.550;2023-02-23T09:19:11;75.28;;;43.63;;
61915;SDS011;47868;51.326;6.550;2023-02-23T09:21:38;74.15;;;43.30;;
61915;SDS011;47868;51.326;6.550;2023-02-23T09:24:04;73.68;;;46.17;;
61915;SDS011;47868;51.326;6.550;2023-02-23T09:26:30;77.45;;;44.63;;
61915;SDS011;47868;51.326;6.550;2023-02-23T09:28:56;78.35;;;44.67;;
61915;SDS011;47868;51.326;6.550;2023-02-23T09:31:23;76.50;;;45.70;;
61915;SDS011;47868;51.326;6.550;2023-02-23T09:33:49;78.53;;;45.58;;
61915;SDS011;47868;51.326;6.550;2023-02-23T09:36:17;69.28;;;41.58;;
61915;SDS011;47868;51.326;6.550;2023-02-23T09:38:44;63.67;;;39.50;;
61915;SDS011;47868;51.326;6.550;2023-02-23T09:44:00;61.33;;;36.75;;
61915;SDS011;47868;51.326;6.550;2023-02-23T09:48:54;58.28;;;37.25;;
61915;SDS011;47868;51.326;6.550;2023-02-23T09:51:21;53.35;;;34.60;;
61915;SDS011;47868;51.326;6.550;2023-02-23T09:53:49;55.38;;;34.65;;
61915;SDS011;47868;51.326;6.550;2023-02-23T09:56:22;49.40;;;33.30;;
61915;SDS011;47868;51.326;6.550;2023-02-23T09:58:49;54.95;;;34.95;;
61915;SDS011;47868;51.326;6.550;2023-02-23T10:01:49;54.55;;;34.80;;
61915;SDS011;47868;51.326;6.550;2023-02-23T10:06:41;57.03;;;36.38;;
61915;SDS011;47868;51.326;6.550;2023-02-23T10:22:01;62.08;;;38.75;;
61915;SDS011;47868;51.326;6.550;2023-02-23T10:24:28;63.58;;;38.95;;
61915;SDS011;47868;51.326;6.550;2023-02-23T10:26:57;66.78;;;39.30;;
61915;SDS011;47868;51.326;6.550;2023-02-23T10:29:28;56.67;;;35.20;;
61915;SDS011;47868;51.326;6.550;2023-02-23T10:31:58;58.42;;;35.65;;
61915;SDS011;47868;51.326;6.550;2023-02-23T10:34:25;57.65;;;35.35;;
61915;SDS011;47868;51.326;6.550;2023-02-23T10:39:23;61.47;;;36.75;;
61915;SDS011;47868;51.326;6.550;2023-02-23T10:41:49;63.33;;;38.58;;
61915;SDS011;47868;51.326;6.550;2023-02-23T10:44:19;58.78;;;37.35;;
61915;SDS011;47868;51.326;6.550;2023-02-23T10:46:48;66.22;;;40.50;;
61915;SDS011;47868;51.326;6.550;2023-02-23T10:49:17;69.32;;;42.35;;
61915;SDS011;47868;51.326;6.550;2023-02-23T10:51:46;70.95;;;43.45;;
61915;SDS011;47868;51.326;6.550;2023-02-23T10:56:57;60.50;;;37.45;;
61915;SDS011;47868;51.326;6.550;2023-02-23T10:59:23;53.58;;;34.63;;
61915;SDS011;47868;51.326;6.550;2023-02-23T11:01:49;54.97;;;35.55;;
61915;SDS011;47868;51.326;6.550;2023-02-23T11:06:41;54.75;;;35.53;;
61915;SDS011;47868;51.326;6.550;2023-02-23T11:11:58;47.35;;;31.45;;
61915;SDS011;47868;51.326;6.550;2023-02-23T11:14:25;46.50;;;29.85;;
61915;SDS011;47868;51.326;6.550;2023-02-23T11:16:54;47.65;;;31.13;;
61915;SDS011;47868;51.326;6.550;2023-02-23T11:19:32;41.22;;;27.40;;
61915;SDS011;47868;51.326;6.550;2023-02-23T11:21:58;41.25;;;26.77;;
61915;SDS011;47868;51.326;6.550;2023-02-23T11:24:28;40.40;;;25.95;;
61915;SDS011;47868;51.326;6.550;2023-02-23T11:26:57;41.40;;;25.92;;
61915;SDS011;47868;51.326;6.550;2023-02-23T11:32:02;44.22;;;28.85;;
61915;SDS011;47868;51.326;6.550;2023-02-23T11:34:33;42.65;;;28.05;;
61915;SDS011;47868;51.326;6.550;2023-02-23T11:39:25;48.00;;;30.65;;
61915;SDS011;47868;51.326;6.550;2023-02-23T11:44:30;50.92;;;31.88;;
61915;SDS011;47868;51.326;6.550;2023-02-23T11:46:56;45.35;;;29.50;;
61915;SDS011;47868;51.326;6.550;2023-02-23T11:49:26;44.92;;;28.27;;
61915;SDS011;47868;51.326;6.550;2023-02-23T11:51:54;54.90;;;31.20;;
61915;SDS011;47868;51.326;6.550;2023-02-23T11:54:22;43.13;;;29.17;;
61915;SDS011;47868;51.326;6.550;2023-02-23T11:56:50;42.00;;;26.15;;
61915;SDS011;47868;51.326;6.550;2023-02-23T11:59:20;40.42;;;25.02;;
61915;SDS011;47868;51.326;6.550;2023-02-23T12:01:49;34.47;;;23.90;;
61915;SDS011;47868;51.326;6.550;2023-02-23T12:06:54;33.55;;;22.00;;
61915;SDS011;47868;51.326;6.550;2023-02-23T12:09:25;35.80;;;23.40;;
61915;SDS011;47868;51.326;6.550;2023-02-23T12:12:03;33.67;;;22.73;;
61915;SDS011;47868;51.326;6.550;2023-02-23T12:14:40;30.95;;;22.17;;
61915;SDS011;47868;51.326;6.550;2023-02-23T12:19:42;33.50;;;23.38;;
61915;SDS011;47868;51.326;6.550;2023-02-23T12:22:14;33.33;;;22.70;;
61915;SDS011;47868;51.326;6.550;2023-02-23T12:27:25;40.65;;;26.65;;
61915;SDS011;47868;51.326;6.550;2023-02-23T12:29:57;35.75;;;24.75;;
61915;SDS011;47868;51.326;6.550;2023-02-23T12:32:26;36.72;;;24.52;;
61915;SDS011;47868;51.326;6.550;2023-02-23T12:42:39;41.40;;;27.38;;
61915;SDS011;47868;51.326;6.550;2023-02-23T12:45:12;45.88;;;27.92;;
61915;SDS011;47868;51.326;6.550;2023-02-23T12:47:43;39.72;;;27.02;;
61915;SDS011;47868;51.326;6.550;2023-02-23T12:50:15;46.95;;;30.73;;
61915;SDS011;47868;51.326;6.550;2023-02-23T12:53:05;43.05;;;29.48;;
61915;SDS011;47868;51.326;6.550;2023-02-23T12:55:38;45.30;;;28.50;;
61915;SDS011;47868;51.326;6.550;2023-02-23T13:06:03;43.95;;;28.70;;
61915;SDS011;47868;51.326;6.550;2023-02-23T13:18:41;40.50;;;27.42;;
61915;SDS011;47868;51.326;6.550;2023-02-23T13:23:49;42.80;;;28.25;;
61915;SDS011;47868;51.326;6.550;2023-02-23T13:31:24;39.50;;;27.45;;
61915;SDS011;47868;51.326;6.550;2023-02-23T13:33:52;43.40;;;27.65;;
61915;SDS011;47868;51.326;6.550;2023-02-23T13:36:19;40.65;;;26.85;;
61915;SDS011;47868;51.326;6.550;2023-02-23T13:38:50;39.92;;;25.55;;
61915;SDS011;47868;51.326;6.550;2023-02-23T13:43:58;43.33;;;25.15;;
61915;SDS011;47868;51.326;6.550;2023-02-23T13:46:32;40.95;;;26.25;;
61915;SDS011;47868;51.326;6.550;2023-02-23T13:56:28;40.75;;;27.27;;
61915;SDS011;47868;51.326;6.550;2023-02-23T13:58:58;41.17;;;28.27;;
61915;SDS011;47868;51.326;6.550;2023-02-23T14:01:30;43.70;;;28.20;;
61915;SDS011;47868;51.326;6.550;2023-02-23T14:04:01;43.60;;;28.23;;
61915;SDS011;47868;51.326;6.550;2023-02-23T14:06:29;40.20;;;27.00;;
61915;SDS011;47868;51.326;6.550;2023-02-23T14:11:42;41.17;;;26.83;;
61915;SDS011;47868;51.326;6.550;2023-02-23T14:14:36;41.58;;;27.27;;
61915;SDS011;47868;51.326;6.550;2023-02-23T14:17:08;38.72;;;25.95;;
61915;SDS011;47868;51.326;6.550;2023-02-23T14:19:36;43.58;;;26.67;;
61915;SDS011;47868;51.326;6.550;2023-02-23T14:22:07;39.55;;;25.58;;
61915;SDS011;47868;51.326;6.550;2023-02-23T14:24:35;40.00;;;26.42;;
61915;SDS011;47868;51.326;6.550;2023-02-23T14:29:40;42.10;;;23.92;;
61915;SDS011;47868;51.326;6.550;2023-02-23T14:34:43;33.97;;;21.52;;
61915;SDS011;47868;51.326;6.550;2023-02-23T14:37:16;40.35;;;22.60;;
61915;SDS011;47868;51.326;6.550;2023-02-23T14:39:47;32.15;;;21.35;;
61915;SDS011;47868;51.326;6.550;2023-02-23T14:42:22;33.60;;;21.65;;
61915;SDS011;47868;51.326;6.550;2023-02-23T14:44:49;34.45;;;21.83;;
61915;SDS011;47868;51.326;6.550;2023-02-23T14:47:17;31.67;;;20.80;;
61915;SDS011;47868;51.326;6.550;2023-02-23T14:49:45;37.50;;;22.85;;
61915;SDS011;47868;51.326;6.550;2023-02-23T14:52:25;34.88;;;21.42;;
61915;SDS011;47868;51.326;6.550;2023-02-23T14:57:51;34.80;;;21.95;;
61915;SDS011;47868;51.326;6.550;2023-02-23T15:00:20;33.25;;;21.25;;
61915;SDS011;47868;51.326;6.550;2023-02-23T15:05:32;33.15;;;21.75;;
61915;SDS011;47868;51.326;6.550;2023-02-23T15:07:59;29.65;;;21.27;;
61915;SDS011;47868;51.326;6.550;2023-02-23T15:12:57;31.20;;;19.75;;
61915;SDS011;47868;51.326;6.550;2023-02-23T15:15:25;33.67;;;21.17;;
61915;SDS011;47868;51.326;6.550;2023-02-23T15:17:53;32.00;;;20.38;;
61915;SDS011;47868;51.326;6.550;2023-02-23T15:20:23;32.70;;;21.33;;
61915;SDS011;47868;51.326;6.550;2023-02-23T15:22:58;36.47;;;23.85;;
61915;SDS011;47868;51.326;6.550;2023-02-23T15:25:39;29.83;;;20.20;;
61915;SDS011;47868;51.326;6.550;2023-02-23T15:28:21;38.13;;;23.85;;
61915;SDS011;47868;51.326;6.550;2023-02-23T15:30:47;35.92;;;24.00;;
61915;SDS011;47868;51.326;6.550;2023-02-23T15:33:14;32.90;;;23.15;;
61915;SDS011;47868;51.326;6.550;2023-02-23T15:35:51;42.58;;;24.98;;
61915;SDS011;47868;51.326;6.550;2023-02-23T15:38:40;37.92;;;23.70;;
61915;SDS011;47868;51.326;6.550;2023-02-23T15:41:22;37.50;;;23.83;;
61915;SDS011;47868;51.326;6.550;2023-02-23T15:43:54;36.65;;;24.65;;
61915;SDS011;47868;51.326;6.550;2023-02-23T15:46:48;36.03;;;23.52;;
61915;SDS011;47868;51.326;6.550;2023-02-23T15:49:19;40.72;;;23.70;;
61915;SDS011;47868;51.326;6.550;2023-02-23T15:51:49;37.30;;;23.48;;
61915;SDS011;47868;51.326;6.550;2023-02-23T15:56:54;37.95;;;24.98;;
61915;SDS011;47868;51.326;6.550;2023-02-23T15:59:25;36.35;;;23.70;;
61915;SDS011;47868;51.326;6.550;2023-02-23T16:01:56;43.15;;;25.05;;
61915;SDS011;47868;51.326;6.550;2023-02-23T16:04:36;39.58;;;25.17;;
61915;SDS011;47868;51.326;6.550;2023-02-23T16:09:45;38.50;;;25.58;;
61915;SDS011;47868;51.326;6.550;2023-02-23T16:12:20;40.78;;;28.50;;
61915;SDS011;47868;51.326;6.550;2023-02-23T16:15:00;40.70;;;25.92;;
61915;SDS011;47868;51.326;6.550;2023-02-23T16:17:47;40.15;;;25.17;;
61915;SDS011;47868;51.326;6.550;2023-02-23T16:20:38;40.35;;;25.40;;
61915;SDS011;47868;51.326;6.550;2023-02-23T16:23:05;38.05;;;24.15;;
61915;SDS011;47868;51.326;6.550;2023-02-23T16:25:32;33.95;;;23.45;;
61915;SDS011;47868;51.326;6.550;2023-02-23T16:28:03;34.70;;;23.50;;
61915;SDS011;47868;51.326;6.550;2023-02-23T16:30:40;35.42;;;23.05;;
61915;SDS011;47868;51.326;6.550;2023-02-23T16:35:37;35.95;;;19.45;;
61915;SDS011;47868;51.326;6.550;2023-02-23T16:38:19;27.95;;;19.00;;
61915;SDS011;47868;51.326;6.550;2023-02-23T16:40:51;33.38;;;20.05;;
61915;SDS011;47868;51.326;6.550;2023-02-23T16:43:18;27.23;;;17.60;;
61915;SDS011;47868;51.326;6.550;2023-02-23T16:45:44;24.30;;;16.98;;
61915;SDS011;47868;51.326;6.550;2023-02-23T16:48:13;28.02;;;17.88;;
61915;SDS011;47868;51.326;6.550;2023-02-23T16:50:40;25.60;;;16.75;;
61915;SDS011;47868;51.326;6.550;2023-02-23T16:53:06;26.30;;;16.95;;
61915;SDS011;47868;51.326;6.550;2023-02-23T16:55:36;31.42;;;18.85;;
61915;SDS011;47868;51.326;6.550;2023-02-23T16:58:10;24.98;;;16.98;;
61915;SDS011;47868;51.326;6.550;2023-02-23T17:00:41;28.23;;;17.25;;
61915;SDS011;47868;51.326;6.550;2023-02-23T17:03:20;27.95;;;16.02;;
61915;SDS011;47868;51.326;6.550;2023-02-23T17:05:47;31.13;;;17.73;;
61915;SDS011;47868;51.326;6.550;2023-02-23T17:08:13;25.55;;;16.88;;
61915;SDS011;47868;51.326;6.550;2023-02-23T17:10:39;30.67;;;17.58;;
61915;SDS011;47868;51.326;6.550;2023-02-23T17:13:12;29.10;;;17.40;;
61915;SDS011;47868;51.326;6.550;2023-02-23T17:15:44;31.05;;;17.38;;
61915;SDS011;47868;51.326;6.550;2023-02-23T17:18:27;23.65;;;16.73;;